Time;durP1;ratioP1;P1;durP2;ratioP2;P2;SDS_P1;SDS_P2;PMS_P1;PMS_P2;Temp;Humidity;BMP_temperature;BMP_pressure;BME280_temperature;BME280_humidity;BME280_pressure;Samples;Min_cycle;Max_cycle;Signal;HPM_P1;HPM_P2
2021/01/02 00:00:44;;;;;;;47.37;30.07;;;;;;;;;;5115877;28;20200;-84
2021/01/02 00:03:31;;;;;;;63.17;37.77;;;;;;;;;;5115891;28;20547;-84
2021/01/02 00:06:05;;;;;;;63.87;35.63;;;;;;;;;;5116404;28;20182;-83
2021/01/02 00:08:40;;;;;;;50.90;32.43;;;;;;;;;;5116888;28;20200;-83
2021/01/02 00:11:15;;;;;;;61.43;35.50;;;;;;;;;;5116909;28;20212;-83
2021/01/02 00:14:18;;;;;;;56.93;34.50;;;;;;;;;;5117180;28;20575;-83
2021/01/02 00:17:01;;;;;;;52.17;30.93;;;;;;;;;;5054076;28;20203;-83
2021/01/02 00:19:51;;;;;;;55.93;34.77;;;;;;;;;;5111965;28;20691;-83
2021/01/02 00:22:28;;;;;;;54.40;29.70;;;;;;;;;;5116564;28;20168;-83
2021/01/02 00:24:57;;;;;;;50.40;31.03;;;;;;;;;;5116943;28;20173;-83
2021/01/02 00:27:31;;;;;;;51.90;31.23;;;;;;;;;;5116832;28;20675;-83
2021/01/02 00:30:06;;;;;;;49.47;31.30;;;;;;;;;;5115405;28;20652;-83
2021/01/02 00:32:45;;;;;;;50.30;29.87;;;;;;;;;;5115377;28;20188;-83
2021/01/02 00:35:25;;;;;;;38.33;22.80;;;;;;;;;;5116838;28;20171;-83
2021/01/02 00:38:01;;;;;;;51.03;30.93;;;;;;;;;;5117560;28;20168;-84
2021/01/02 00:40:32;;;;;;;48.80;28.60;;;;;;;;;;5114958;28;20187;-83
2021/01/02 00:42:58;;;;;;;49.33;30.73;;;;;;;;;;5116407;28;20181;-83
2021/01/02 00:45:28;;;;;;;40.27;26.40;;;;;;;;;;5115409;28;20176;-83
2021/01/02 00:48:01;;;;;;;44.37;28.47;;;;;;;;;;5116703;28;20222;-83
2021/01/02 00:50:28;;;;;;;52.87;31.33;;;;;;;;;;5116433;28;20189;-83
2021/01/02 00:53:03;;;;;;;52.27;32.10;;;;;;;;;;5114991;28;20174;-83
2021/01/02 00:55:44;;;;;;;51.77;31.23;;;;;;;;;;5115174;28;20632;-83
2021/01/02 00:58:26;;;;;;;51.63;29.90;;;;;;;;;;5116438;28;20244;-83
2021/01/02 01:01:10;;;;;;;38.47;25.83;;;;;;;;;;5116501;28;20231;-83
2021/01/02 01:03:47;;;;;;;46.80;27.63;;;;;;;;;;5116435;28;20166;-83
2021/01/02 01:06:21;;;;;;;36.27;23.13;;;;;;;;;;5115948;28;20177;-83
2021/01/02 01:08:56;;;;;;;30.27;22.20;;;;;;;;;;5114498;28;20208;-84
2021/01/02 01:11:35;;;;;;;36.97;24.30;;;;;;;;;;5116006;28;20578;-83
2021/01/02 01:14:08;;;;;;;45.57;29.27;;;;;;;;;;5116057;28;20159;-84
2021/01/02 01:16:46;;;;;;;50.60;32.53;;;;;;;;;;5116145;28;20644;-84
2021/01/02 01:19:19;;;;;;;29.70;21.87;;;;;;;;;;5114668;28;20179;-84
2021/01/02 01:21:54;;;;;;;47.70;30.17;;;;;;;;;;5114613;28;20330;-84
2021/01/02 01:24:38;;;;;;;34.73;24.73;;;;;;;;;;5115979;28;20240;-83
2021/01/02 01:27:18;;;;;;;41.27;29.27;;;;;;;;;;5115595;28;20586;-82
2021/01/02 01:29:49;;;;;;;43.87;27.87;;;;;;;;;;5114416;28;20223;-82
2021/01/02 01:32:24;;;;;;;37.50;26.83;;;;;;;;;;5115812;28;20181;-83
2021/01/02 01:34:59;;;;;;;45.80;30.03;;;;;;;;;;5114384;28;20177;-83
2021/01/02 01:37:41;;;;;;;40.83;26.17;;;;;;;;;;5114370;28;20531;-83
2021/01/02 01:40:15;;;;;;;48.90;32.83;;;;;;;;;;5115642;28;20235;-83
2021/01/02 01:42:54;;;;;;;47.53;32.00;;;;;;;;;;5115815;28;20166;-83
2021/01/02 01:45:30;;;;;;;39.73;26.90;;;;;;;;;;5114096;28;20647;-83
2021/01/02 01:48:17;;;;;;;33.27;27.00;;;;;;;;;;5114816;28;20272;-83
2021/01/02 01:50:56;;;;;;;41.23;29.90;;;;;;;;;;5115511;28;20622;-83
2021/01/02 01:53:41;;;;;;;40.20;27.93;;;;;;;;;;5114131;28;20176;-83
2021/01/02 01:56:11;;;;;;;42.80;28.83;;;;;;;;;;5113902;28;20172;-83
2021/01/02 01:58:48;;;;;;;40.37;28.10;;;;;;;;;;5115059;28;20182;-83
2021/01/02 02:01:25;;;;;;;47.40;31.47;;;;;;;;;;5114960;28;20671;-83
2021/01/02 02:04:06;;;;;;;41.80;28.00;;;;;;;;;;5114250;28;20197;-83
2021/01/02 02:06:39;;;;;;;36.50;27.77;;;;;;;;;;5114970;27;20175;-83
2021/01/02 02:09:18;;;;;;;41.27;29.20;;;;;;;;;;5113755;28;20202;-83
2021/01/02 02:11:46;;;;;;;40.20;28.63;;;;;;;;;;5114891;28;20203;-83
2021/01/02 02:14:21;;;;;;;41.87;31.13;;;;;;;;;;5113629;28;20176;-83
2021/01/02 02:16:56;;;;;;;41.30;28.93;;;;;;;;;;5114602;28;20654;-83
2021/01/02 02:19:28;;;;;;;43.40;30.63;;;;;;;;;;5115003;28;20666;-83
2021/01/02 02:22:06;;;;;;;46.93;30.33;;;;;;;;;;5114790;28;20221;-83
2021/01/02 02:24:35;;;;;;;44.67;30.13;;;;;;;;;;5115020;28;20173;-83
2021/01/02 02:27:08;;;;;;;38.40;24.50;;;;;;;;;;5114932;28;20173;-83
2021/01/02 02:29:41;;;;;;;33.87;25.23;;;;;;;;;;5113359;28;20174;-83
2021/01/02 02:32:09;;;;;;;34.47;23.43;;;;;;;;;;5114819;28;20218;-83
2021/01/02 02:34:40;;;;;;;40.50;27.37;;;;;;;;;;5114793;28;20172;-83
2021/01/02 02:37:16;;;;;;;27.10;19.60;;;;;;;;;;5114629;28;20249;-83
2021/01/02 02:39:47;;;;;;;42.37;28.07;;;;;;;;;;5114888;28;20160;-83
2021/01/02 02:42:14;;;;;;;24.60;19.37;;;;;;;;;;5114677;28;20201;-83
2021/01/02 02:44:43;;;;;;;40.20;25.97;;;;;;;;;;5114704;28;20540;-83
2021/01/02 02:47:15;;;;;;;27.83;20.07;;;;;;;;;;5114321;28;20573;-83
2021/01/02 02:49:51;;;;;;;32.93;22.37;;;;;;;;;;5114441;28;20203;-83
2021/01/02 02:52:30;;;;;;;35.67;23.87;;;;;;;;;;5113287;28;20280;-83
2021/01/02 02:55:03;;;;;;;35.07;25.90;;;;;;;;;;5112954;28;20167;-83
2021/01/02 02:57:43;;;;;;;40.53;26.97;;;;;;;;;;5113154;28;20180;-83
2021/01/02 03:00:12;;;;;;;35.30;25.17;;;;;;;;;;5115690;28;20167;-83
2021/01/02 03:02:44;;;;;;;38.30;26.97;;;;;;;;;;5116988;28;20173;-83
2021/01/02 03:05:15;;;;;;;26.30;20.00;;;;;;;;;;5117083;28;20174;-83
2021/01/02 03:07:51;;;;;;;36.50;25.27;;;;;;;;;;5118391;28;20197;-83
2021/01/02 03:10:21;;;;;;;43.40;31.47;;;;;;;;;;5118365;28;20205;-83
2021/01/02 03:12:58;;;;;;;41.73;28.77;;;;;;;;;;5118381;28;20271;-83
2021/01/02 03:15:30;;;;;;;30.60;23.77;;;;;;;;;;5118951;28;20171;-83
2021/01/02 03:18:04;;;;;;;44.73;31.93;;;;;;;;;;5118408;28;20551;-83
2021/01/02 03:20:40;;;;;;;34.10;25.47;;;;;;;;;;5116574;28;20336;-83
2021/01/02 03:23:11;;;;;;;36.90;26.23;;;;;;;;;;5118285;28;20176;-83
2021/01/02 03:25:41;;;;;;;43.70;28.27;;;;;;;;;;5116784;28;20232;-83
2021/01/02 03:28:14;;;;;;;45.27;28.90;;;;;;;;;;5117815;28;20200;-83
2021/01/02 03:30:45;;;;;;;58.07;35.20;;;;;;;;;;5118042;28;20669;-83
2021/01/02 03:33:16;;;;;;;44.40;29.97;;;;;;;;;;5117790;28;20283;-83
2021/01/02 03:35:47;;;;;;;43.53;26.80;;;;;;;;;;5118110;28;20170;-83
2021/01/02 03:38:16;;;;;;;43.50;27.20;;;;;;;;;;5117949;28;20590;-83
2021/01/02 03:40:48;;;;;;;45.23;26.17;;;;;;;;;;5116500;28;20292;-83
2021/01/02 03:43:22;;;;;;;30.33;21.73;;;;;;;;;;5117592;28;20257;-83
2021/01/02 03:45:49;;;;;;;45.77;32.30;;;;;;;;;;5117557;28;20179;-83
2021/01/02 03:48:20;;;;;;;51.50;28.37;;;;;;;;;;5116375;28;20197;-83
2021/01/02 03:50:51;;;;;;;45.53;30.17;;;;;;;;;;5117893;27;20222;-83
2021/01/02 03:53:24;;;;;;;25.70;19.73;;;;;;;;;;5116342;28;20175;-83
2021/01/02 03:55:55;;;;;;;43.73;29.83;;;;;;;;;;5117758;28;20169;-83
2021/01/02 03:58:23;;;;;;;52.40;35.93;;;;;;;;;;5116393;28;20177;-83
2021/01/02 04:00:56;;;;;;;68.07;39.57;;;;;;;;;;5117484;28;20199;-83
2021/01/02 04:03:24;;;;;;;59.03;35.73;;;;;;;;;;5116155;28;20183;-83
2021/01/02 04:06:01;;;;;;;51.77;32.17;;;;;;;;;;5117948;28;20219;-83
2021/01/02 04:08:31;;;;;;;50.50;29.83;;;;;;;;;;5117466;28;20585;-83
2021/01/02 04:11:00;;;;;;;65.53;40.90;;;;;;;;;;5116631;28;20228;-83
2021/01/02 04:13:31;;;;;;;55.50;32.03;;;;;;;;;;5117073;28;20176;-82
2021/01/02 04:16:05;;;;;;;55.10;35.57;;;;;;;;;;5117124;28;20215;-83
2021/01/02 04:18:34;;;;;;;55.43;37.83;;;;;;;;;;5117619;28;20161;-83
2021/01/02 04:21:06;;;;;;;49.13;32.00;;;;;;;;;;5117104;28;20286;-82
2021/01/02 04:23:33;;;;;;;64.50;40.27;;;;;;;;;;5115754;28;20172;-83
2021/01/02 04:26:05;;;;;;;50.73;32.53;;;;;;;;;;5117141;27;20551;-83
2021/01/02 04:28:40;;;;;;;55.77;34.43;;;;;;;;;;5116807;28;20262;-83
2021/01/02 04:31:11;;;;;;;54.07;33.87;;;;;;;;;;5116855;28;20188;-83
2021/01/02 04:33:40;;;;;;;37.63;25.80;;;;;;;;;;5116842;28;20175;-83
2021/01/02 04:36:15;;;;;;;49.53;33.17;;;;;;;;;;5116586;28;20180;-82
2021/01/02 04:38:43;;;;;;;64.87;39.67;;;;;;;;;;5115469;28;20264;-83
2021/01/02 04:41:17;;;;;;;63.87;36.57;;;;;;;;;;5116685;28;20197;-83
2021/01/02 04:43:52;;;;;;;57.90;38.10;;;;;;;;;;5116650;28;20181;-83
2021/01/02 04:46:25;;;;;;;60.47;37.90;;;;;;;;;;5115292;28;20265;-83
2021/01/02 04:49:00;;;;;;;51.33;31.50;;;;;;;;;;5115251;28;20239;-83
2021/01/02 04:51:31;;;;;;;58.63;37.60;;;;;;;;;;5116761;28;20211;-83
2021/01/02 04:54:05;;;;;;;50.03;33.33;;;;;;;;;;5116745;28;20226;-83
2021/01/02 04:56:40;;;;;;;57.97;36.97;;;;;;;;;;5116950;28;20161;-83
2021/01/02 04:59:11;;;;;;;50.07;34.43;;;;;;;;;;5116959;28;20172;-83
2021/01/02 05:01:44;;;;;;;45.50;31.73;;;;;;;;;;5116377;28;20663;-83
2021/01/02 05:04:14;;;;;;;47.77;32.13;;;;;;;;;;5114970;28;20581;-83
2021/01/02 05:06:48;;;;;;;68.33;40.40;;;;;;;;;;5116816;28;20169;-83
2021/01/02 05:09:21;;;;;;;63.10;40.13;;;;;;;;;;5115317;28;20196;-83
2021/01/02 05:11:52;;;;;;;63.97;40.87;;;;;;;;;;5115253;28;20749;-83
2021/01/02 05:14:22;;;;;;;57.50;38.73;;;;;;;;;;5116132;28;20301;-83
2021/01/02 05:16:55;;;;;;;61.27;38.13;;;;;;;;;;5116463;28;20645;-83
2021/01/02 05:19:24;;;;;;;58.90;36.33;;;;;;;;;;5116581;28;20173;-83
2021/01/02 05:21:59;;;;;;;59.17;37.50;;;;;;;;;;5114932;28;20250;-83
2021/01/02 05:24:35;;;;;;;62.00;37.87;;;;;;;;;;5115641;28;20170;-83
2021/01/02 05:27:10;;;;;;;59.17;36.43;;;;;;;;;;5116095;27;20205;-83
2021/01/02 05:29:37;;;;;;;37.67;26.33;;;;;;;;;;5114426;28;20210;-83
2021/01/02 05:32:09;;;;;;;41.93;27.47;;;;;;;;;;5115644;28;20669;-83
2021/01/02 05:34:40;;;;;;;50.47;32.77;;;;;;;;;;5116079;28;20170;-83
2021/01/02 05:37:18;;;;;;;47.37;32.00;;;;;;;;;;5115263;28;20197;-83
2021/01/02 05:39:52;;;;;;;56.83;38.00;;;;;;;;;;5115579;28;20174;-83
2021/01/02 05:42:30;;;;;;;57.23;35.60;;;;;;;;;;5114178;28;20652;-83
2021/01/02 05:45:00;;;;;;;55.53;37.40;;;;;;;;;;5115537;28;20161;-83
2021/01/02 05:47:31;;;;;;;29.37;21.83;;;;;;;;;;5115353;28;20736;-83
2021/01/02 05:50:05;;;;;;;57.20;36.87;;;;;;;;;;5114025;28;20529;-83
2021/01/02 05:52:37;;;;;;;41.63;27.07;;;;;;;;;;5115633;28;20173;-83
2021/01/02 05:55:10;;;;;;;48.57;30.30;;;;;;;;;;5115342;28;20173;-83
2021/01/02 05:57:38;;;;;;;50.13;30.00;;;;;;;;;;5115704;28;20174;-83
2021/01/02 06:00:15;;;;;;;48.50;29.50;;;;;;;;;;5115002;28;20181;-83
2021/01/02 06:02:48;;;;;;;61.23;39.27;;;;;;;;;;5115153;28;20187;-83
2021/01/02 06:05:14;;;;;;;45.67;27.87;;;;;;;;;;5113799;28;20174;-83
2021/01/02 06:07:56;;;;;;;28.10;20.30;;;;;;;;;;5114810;28;20276;-83
2021/01/02 06:10:33;;;;;;;51.20;33.50;;;;;;;;;;5112565;28;20257;-83
2021/01/02 06:13:04;;;;;;;57.67;35.80;;;;;;;;;;5115203;28;20185;-84
2021/01/02 06:15:39;;;;;;;66.50;38.50;;;;;;;;;;5113869;28;20176;-83
2021/01/02 06:18:11;;;;;;;44.53;30.57;;;;;;;;;;5114793;28;20180;-83
2021/01/02 06:20:45;;;;;;;37.97;21.20;;;;;;;;;;5113459;28;20209;-83
2021/01/02 06:23:21;;;;;;;34.63;21.77;;;;;;;;;;5114926;28;20169;-83
2021/01/02 06:25:52;;;;;;;54.47;32.37;;;;;;;;;;5113265;28;20684;-83
2021/01/02 06:28:25;;;;;;;63.13;36.77;;;;;;;;;;5114340;28;20351;-83
2021/01/02 06:31:04;;;;;;;52.00;27.37;;;;;;;;;;5114794;28;20196;-83
2021/01/02 06:33:38;;;;;;;58.00;33.67;;;;;;;;;;5114194;28;20187;-83
2021/01/02 06:36:29;;;;;;;60.47;37.00;;;;;;;;;;5114665;28;20175;-83
2021/01/02 06:39:17;;;;;;;53.23;31.57;;;;;;;;;;5114423;28;20639;-83
2021/01/02 06:41:48;;;;;;;36.13;24.47;;;;;;;;;;5114260;28;20712;-83
2021/01/02 06:44:36;;;;;;;40.53;26.20;;;;;;;;;;5113233;28;20178;-83
2021/01/02 06:47:18;;;;;;;43.93;29.23;;;;;;;;;;5113127;28;20252;-83
2021/01/02 06:49:52;;;;;;;49.60;32.40;;;;;;;;;;5114181;28;20185;-83
2021/01/02 06:52:30;;;;;;;54.77;30.23;;;;;;;;;;5113491;28;20222;-83
2021/01/02 06:55:18;;;;;;;62.20;33.57;;;;;;;;;;5115936;28;20203;-83
2021/01/02 06:57:50;;;;;;;40.93;24.27;;;;;;;;;;5114224;28;20185;-83
2021/01/02 07:00:25;;;;;;;60.80;33.80;;;;;;;;;;5114297;28;20196;-83
2021/01/02 07:03:00;;;;;;;62.80;34.67;;;;;;;;;;5113036;28;20186;-83
2021/01/02 07:05:51;;;;;;;53.57;33.13;;;;;;;;;;5114345;28;20181;-83
2021/01/02 07:08:36;;;;;;;63.30;36.87;;;;;;;;;;5114431;28;20572;-83
2021/01/02 07:11:24;;;;;;;55.30;31.83;;;;;;;;;;5113315;28;20216;-83
2021/01/02 07:14:11;;;;;;;60.27;35.83;;;;;;;;;;5114362;28;20230;-83
2021/01/02 07:16:56;;;;;;;60.73;37.80;;;;;;;;;;5114148;28;20162;-83
2021/01/02 07:19:36;;;;;;;54.73;36.10;;;;;;;;;;5114535;28;20634;-83
2021/01/02 07:22:12;;;;;;;61.63;36.67;;;;;;;;;;5112942;28;20203;-83
2021/01/02 07:24:48;;;;;;;64.40;39.03;;;;;;;;;;5114505;28;20550;-83
2021/01/02 07:27:15;;;;;;;66.07;37.37;;;;;;;;;;5114199;28;20185;-83
2021/01/02 07:29:51;;;;;;;30.47;20.73;;;;;;;;;;5112892;28;20172;-83
2021/01/02 07:32:25;;;;;;;71.73;39.23;;;;;;;;;;5113848;28;20189;-83
2021/01/02 07:34:58;;;;;;;35.67;23.43;;;;;;;;;;5114397;28;20208;-83
2021/01/02 07:37:28;;;;;;;52.47;31.83;;;;;;;;;;5112978;28;20211;-83
2021/01/02 07:40:08;;;;;;;46.63;27.90;;;;;;;;;;5113988;28;20649;-83
2021/01/02 07:42:44;;;;;;;44.73;28.17;;;;;;;;;;5114220;28;20165;-83
2021/01/02 07:45:11;;;;;;;53.87;34.20;;;;;;;;;;5114936;28;20581;-83
2021/01/02 07:47:48;;;;;;;57.20;35.43;;;;;;;;;;5117563;28;20205;-83
2021/01/02 07:50:21;;;;;;;58.40;38.07;;;;;;;;;;5117929;28;20189;-83
2021/01/02 07:52:55;;;;;;;60.10;34.23;;;;;;;;;;5118295;28;20241;-83
2021/01/02 07:55:31;;;;;;;57.07;35.17;;;;;;;;;;5117703;28;20178;-83
2021/01/02 07:58:04;;;;;;;58.27;35.43;;;;;;;;;;5118240;28;20260;-83
2021/01/02 08:00:30;;;;;;;63.37;37.63;;;;;;;;;;5116432;28;20204;-83
2021/01/02 08:03:04;;;;;;;66.83;38.30;;;;;;;;;;5117737;28;20635;-83
2021/01/02 08:05:38;;;;;;;58.23;35.77;;;;;;;;;;5117463;28;20183;-83
2021/01/02 08:08:09;;;;;;;59.20;35.73;;;;;;;;;;5117535;28;20189;-83
2021/01/02 08:10:41;;;;;;;62.83;36.93;;;;;;;;;;5117061;28;20213;-83
2021/01/02 08:13:20;;;;;;;50.37;31.37;;;;;;;;;;5116074;28;20642;-83
2021/01/02 08:15:55;;;;;;;65.37;37.63;;;;;;;;;;5117366;28;20642;-83
2021/01/02 08:18:28;;;;;;;52.80;33.80;;;;;;;;;;5115877;28;20184;-83
2021/01/02 08:21:04;;;;;;;57.07;35.97;;;;;;;;;;5117131;28;20198;-83
2021/01/02 08:23:41;;;;;;;59.30;35.57;;;;;;;;;;5115801;28;20201;-83
2021/01/02 08:26:11;;;;;;;61.27;35.17;;;;;;;;;;5117281;28;20548;-83
2021/01/02 08:28:44;;;;;;;60.30;38.00;;;;;;;;;;5116892;28;20221;-83
2021/01/02 08:31:21;;;;;;;56.13;35.30;;;;;;;;;;5117162;27;20227;-83
2021/01/02 08:33:51;;;;;;;63.13;34.70;;;;;;;;;;5117399;28;20165;-83
2021/01/02 08:36:22;;;;;;;59.80;35.20;;;;;;;;;;5115553;28;20616;-83
2021/01/02 08:39:00;;;;;;;61.10;36.33;;;;;;;;;;5115749;28;20641;-83
2021/01/02 08:41:35;;;;;;;59.40;37.50;;;;;;;;;;5116593;28;20341;-82
2021/01/02 08:44:09;;;;;;;55.47;34.30;;;;;;;;;;5117026;28;20176;-83
2021/01/02 08:46:48;;;;;;;63.77;38.20;;;;;;;;;;5116877;28;20258;-83
2021/01/02 08:49:31;;;;;;;67.10;39.77;;;;;;;;;;5114961;28;20209;-83
2021/01/02 08:52:12;;;;;;;59.30;38.83;;;;;;;;;;5116259;27;20598;-83
2021/01/02 08:54:42;;;;;;;62.60;38.00;;;;;;;;;;5115236;28;20254;-83
2021/01/02 08:57:30;;;;;;;69.33;39.93;;;;;;;;;;5113922;28;20229;-83
2021/01/02 09:00:15;;;;;;;66.70;39.07;;;;;;;;;;5115172;28;20189;-83
2021/01/02 09:02:51;;;;;;;67.73;36.93;;;;;;;;;;5116587;28;20243;-83
2021/01/02 09:05:21;;;;;;;67.13;39.43;;;;;;;;;;5116737;28;20229;-83
2021/01/02 09:08:06;;;;;;;68.00;40.73;;;;;;;;;;5115089;28;20204;-83
2021/01/02 09:10:40;;;;;;;61.93;36.17;;;;;;;;;;5116164;28;20221;-83
2021/01/02 09:13:15;;;;;;;66.47;38.67;;;;;;;;;;5115044;28;20177;-82
2021/01/02 09:15:55;;;;;;;68.03;38.70;;;;;;;;;;5116096;28;20180;-83
2021/01/02 09:18:35;;;;;;;60.30;37.10;;;;;;;;;;5116223;28;20174;-83
2021/01/02 09:21:12;;;;;;;64.43;39.53;;;;;;;;;;5115945;28;20193;-83
2021/01/02 09:23:45;;;;;;;58.67;35.63;;;;;;;;;;5116078;28;20592;-83
2021/01/02 09:26:40;;;;;;;64.87;37.93;;;;;;;;;;5116183;28;20185;-83
2021/01/02 09:29:16;;;;;;;65.53;37.40;;;;;;;;;;5114164;28;20293;-83
2021/01/02 09:31:48;;;;;;;58.20;36.80;;;;;;;;;;5115819;28;20201;-83
2021/01/02 09:34:17;;;;;;;63.03;38.13;;;;;;;;;;5116151;28;20208;-84
2021/01/02 09:36:45;;;;;;;65.43;36.93;;;;;;;;;;5114314;28;20171;-83
2021/01/02 09:39:25;;;;;;;56.97;35.77;;;;;;;;;;5115703;28;20178;-84
2021/01/02 09:41:53;;;;;;;69.47;38.10;;;;;;;;;;5114293;28;20220;-84
2021/01/02 09:44:20;;;;;;;66.93;38.83;;;;;;;;;;5114083;28;20184;-83
2021/01/02 09:46:49;;;;;;;68.43;38.73;;;;;;;;;;5115935;28;20178;-83
2021/01/02 09:49:21;;;;;;;74.83;38.70;;;;;;;;;;5113859;28;20689;-84
2021/01/02 09:51:49;;;;;;;70.23;39.60;;;;;;;;;;5114229;28;20231;-84
2021/01/02 09:54:21;;;;;;;74.37;42.23;;;;;;;;;;5115366;28;20174;-83
2021/01/02 09:56:49;;;;;;;74.93;41.20;;;;;;;;;;5115891;28;20170;-83
2021/01/02 09:59:25;;;;;;;73.77;40.53;;;;;;;;;;5115539;28;20691;-83
2021/01/02 10:01:58;;;;;;;65.00;36.90;;;;;;;;;;5115169;28;20685;-83
2021/01/02 10:04:28;;;;;;;61.17;37.03;;;;;;;;;;5115355;28;20586;-83
2021/01/02 10:07:01;;;;;;;58.57;33.93;;;;;;;;;;5114002;28;20198;-83
2021/01/02 10:09:30;;;;;;;54.40;32.80;;;;;;;;;;5115686;28;20258;-83
2021/01/02 10:11:59;;;;;;;47.27;31.20;;;;;;;;;;5115263;28;20216;-83
2021/01/02 10:14:31;;;;;;;54.90;32.93;;;;;;;;;;5114193;28;20182;-83
2021/01/02 10:17:01;;;;;;;69.23;39.43;;;;;;;;;;5116201;28;20165;-84
2021/01/02 10:19:32;;;;;;;69.60;39.00;;;;;;;;;;5115535;28;20184;-84
2021/01/02 10:22:03;;;;;;;79.20;40.93;;;;;;;;;;5116043;28;20562;-84
2021/01/02 10:24:34;;;;;;;66.93;35.63;;;;;;;;;;5113841;28;20265;-85
2021/01/02 10:27:02;;;;;;;74.20;38.60;;;;;;;;;;5117754;28;20174;-84
2021/01/02 10:29:35;;;;;;;72.77;39.00;;;;;;;;;;5116873;28;20201;-84
2021/01/02 10:32:07;;;;;;;67.90;38.00;;;;;;;;;;5116585;28;20190;-84
2021/01/02 10:34:36;;;;;;;59.13;35.20;;;;;;;;;;5113942;28;20166;-83
2021/01/02 10:37:06;;;;;;;70.63;37.03;;;;;;;;;;5116345;28;20199;-84
2021/01/02 10:39:33;;;;;;;67.73;37.10;;;;;;;;;;5116014;28;20182;-83
2021/01/02 10:42:05;;;;;;;64.10;35.90;;;;;;;;;;5115798;28;20204;-84
2021/01/02 10:44:41;;;;;;;64.83;35.43;;;;;;;;;;5113469;28;20173;-84
2021/01/02 10:47:10;;;;;;;57.00;34.57;;;;;;;;;;5114712;28;20188;-84
2021/01/02 10:49:41;;;;;;;63.20;37.77;;;;;;;;;;5114171;28;20216;-84
2021/01/02 10:52:11;;;;;;;65.23;35.77;;;;;;;;;;5114619;28;20725;-83
2021/01/02 10:54:44;;;;;;;63.03;36.57;;;;;;;;;;5112621;28;20170;-84
2021/01/02 10:57:11;;;;;;;62.53;36.43;;;;;;;;;;5112937;28;20587;-84
2021/01/02 10:59:48;;;;;;;61.00;33.57;;;;;;;;;;5114270;28;20181;-84
2021/01/02 11:02:21;;;;;;;58.20;35.87;;;;;;;;;;5114323;28;20677;-84
2021/01/02 11:04:56;;;;;;;60.07;38.33;;;;;;;;;;5114138;28;20185;-84
2021/01/02 11:07:28;;;;;;;64.90;36.67;;;;;;;;;;5112773;28;20264;-83
2021/01/02 11:10:01;;;;;;;59.20;35.07;;;;;;;;;;5114785;28;20178;-83
2021/01/02 11:12:35;;;;;;;60.40;34.47;;;;;;;;;;5114237;28;20178;-83
2021/01/02 11:15:08;;;;;;;69.17;36.80;;;;;;;;;;5114153;28;20173;-83
2021/01/02 11:17:40;;;;;;;67.50;35.77;;;;;;;;;;5114156;28;20257;-84
2021/01/02 11:20:14;;;;;;;67.50;36.30;;;;;;;;;;5113700;28;20176;-84
2021/01/02 11:22:45;;;;;;;62.30;35.80;;;;;;;;;;5117098;28;20170;-85
2021/01/02 11:25:15;;;;;;;68.17;36.97;;;;;;;;;;5116967;28;20170;-85
2021/01/02 11:27:47;;;;;;;65.23;37.63;;;;;;;;;;5117876;28;20179;-85
2021/01/02 11:30:21;;;;;;;74.27;38.30;;;;;;;;;;5118623;28;20218;-85
2021/01/02 11:32:51;;;;;;;69.70;38.70;;;;;;;;;;5116811;28;20667;-86
2021/01/02 11:35:22;;;;;;;61.63;37.57;;;;;;;;;;5117217;28;20170;-86
2021/01/02 11:37:55;;;;;;;69.60;38.10;;;;;;;;;;5116979;28;20170;-85
2021/01/02 11:40:22;;;;;;;74.50;40.47;;;;;;;;;;5118841;28;20198;-85
2021/01/02 11:42:48;;;;;;;73.17;37.97;;;;;;;;;;5118234;28;20199;-85
2021/01/02 11:45:17;;;;;;;74.40;40.27;;;;;;;;;;5116958;28;20526;-85
2021/01/02 11:47:46;;;;;;;70.33;40.10;;;;;;;;;;5116814;28;20295;-85
2021/01/02 11:50:18;;;;;;;73.63;39.23;;;;;;;;;;5116773;28;20166;-86
2021/01/02 11:52:48;;;;;;;86.37;41.20;;;;;;;;;;5118977;28;20518;-85
2021/01/02 11:55:14;;;;;;;80.97;39.83;;;;;;;;;;5116600;28;20185;-85
2021/01/02 11:57:40;;;;;;;76.53;39.90;;;;;;;;;;5117106;28;20607;-85
2021/01/02 12:00:14;;;;;;;71.10;39.57;;;;;;;;;;5116519;28;20550;-85
2021/01/02 12:02:48;;;;;;;70.10;38.77;;;;;;;;;;5116258;28;20276;-85
2021/01/02 12:05:14;;;;;;;70.80;36.77;;;;;;;;;;5116470;28;20205;-85
2021/01/02 12:07:42;;;;;;;70.07;38.47;;;;;;;;;;5116760;28;20261;-85
2021/01/02 12:10:10;;;;;;;70.57;37.53;;;;;;;;;;5117014;28;20245;-85
2021/01/02 12:12:42;;;;;;;71.27;39.43;;;;;;;;;;5115819;28;20618;-85
2021/01/02 12:15:15;;;;;;;77.40;40.33;;;;;;;;;;5116009;28;20246;-85
2021/01/02 12:17:41;;;;;;;65.13;37.93;;;;;;;;;;5115860;28;20174;-85
2021/01/02 12:20:15;;;;;;;69.97;38.80;;;;;;;;;;5116103;28;20520;-85
2021/01/02 12:22:48;;;;;;;73.30;38.00;;;;;;;;;;5115782;28;20175;-85
2021/01/02 12:25:21;;;;;;;73.40;40.27;;;;;;;;;;5116982;28;20622;-85
2021/01/02 12:27:51;;;;;;;70.43;38.97;;;;;;;;;;5116605;28;20262;-85
2021/01/02 12:30:23;;;;;;;71.93;38.43;;;;;;;;;;5116495;28;20749;-85
2021/01/02 12:32:52;;;;;;;71.00;38.30;;;;;;;;;;5115028;28;20260;-85
2021/01/02 12:35:25;;;;;;;61.83;36.87;;;;;;;;;;5116254;28;20174;-85
2021/01/02 12:37:52;;;;;;;86.43;40.37;;;;;;;;;;5115216;28;20599;-85
2021/01/02 12:40:26;;;;;;;65.37;38.70;;;;;;;;;;5115124;28;20230;-85
2021/01/02 12:42:59;;;;;;;66.97;37.93;;;;;;;;;;5115302;28;20181;-85
2021/01/02 12:45:31;;;;;;;80.30;40.30;;;;;;;;;;5116966;28;20162;-85
2021/01/02 12:48:05;;;;;;;71.23;39.20;;;;;;;;;;5116468;28;20213;-85
2021/01/02 12:50:31;;;;;;;75.37;40.60;;;;;;;;;;5116943;28;20614;-85
2021/01/02 12:53:06;;;;;;;81.20;41.63;;;;;;;;;;5115536;28;20166;-85
2021/01/02 12:55:38;;;;;;;71.10;38.63;;;;;;;;;;5115769;28;20558;-86
2021/01/02 12:58:10;;;;;;;77.20;42.77;;;;;;;;;;5116295;28;20177;-85
2021/01/02 13:00:37;;;;;;;70.43;39.23;;;;;;;;;;5116743;28;20194;-85
2021/01/02 13:03:05;;;;;;;73.40;38.10;;;;;;;;;;5115995;28;20263;-85
2021/01/02 13:05:31;;;;;;;69.67;37.23;;;;;;;;;;5114584;28;20178;-85
2021/01/02 13:07:59;;;;;;;81.07;40.03;;;;;;;;;;5114562;28;20243;-86
2021/01/02 13:10:34;;;;;;;71.20;38.57;;;;;;;;;;5114366;28;20202;-86
2021/01/02 13:13:01;;;;;;;75.57;40.30;;;;;;;;;;5114370;28;20252;-87
2021/01/02 13:15:35;;;;;;;78.83;39.27;;;;;;;;;;5115652;28;20169;-87
2021/01/02 13:18:08;;;;;;;74.63;41.07;;;;;;;;;;5114440;28;20617;-87
2021/01/02 13:20:37;;;;;;;70.33;40.87;;;;;;;;;;5115589;28;20273;-87
2021/01/02 13:23:11;;;;;;;73.57;43.97;;;;;;;;;;5113938;28;20203;-87
2021/01/02 13:25:42;;;;;;;65.33;38.37;;;;;;;;;;5115150;28;20170;-87
2021/01/02 13:28:14;;;;;;;78.03;41.17;;;;;;;;;;5115285;28;20194;-88
2021/01/02 13:30:49;;;;;;;74.87;40.17;;;;;;;;;;5113956;28;20191;-87
2021/01/02 13:33:21;;;;;;;76.87;40.70;;;;;;;;;;5113929;28;20170;-87
2021/01/02 13:35:51;;;;;;;66.90;39.77;;;;;;;;;;5115631;28;20167;-86
2021/01/02 13:38:21;;;;;;;79.87;43.17;;;;;;;;;;5115283;28;20178;-85
2021/01/02 13:40:55;;;;;;;84.73;43.23;;;;;;;;;;5115738;28;20218;-85
2021/01/02 13:43:26;;;;;;;78.00;42.90;;;;;;;;;;5113518;28;20256;-85
2021/01/02 13:45:58;;;;;;;76.63;40.97;;;;;;;;;;5115189;28;20177;-85
2021/01/02 13:48:29;;;;;;;83.20;42.80;;;;;;;;;;5115086;28;20207;-85
2021/01/02 13:51:02;;;;;;;84.67;41.17;;;;;;;;;;5113565;28;20188;-85
2021/01/02 13:53:34;;;;;;;76.07;43.07;;;;;;;;;;5115125;28;20246;-85
2021/01/02 13:56:09;;;;;;;82.10;42.17;;;;;;;;;;5115130;28;20163;-85
2021/01/02 13:58:42;;;;;;;78.97;42.00;;;;;;;;;;5113971;28;20170;-85
2021/01/02 14:01:11;;;;;;;69.60;40.43;;;;;;;;;;5113516;28;20223;-85
2021/01/02 14:03:38;;;;;;;74.50;40.50;;;;;;;;;;5113742;28;20180;-85
2021/01/02 14:06:04;;;;;;;75.20;41.03;;;;;;;;;;5113902;28;20533;-85
2021/01/02 14:08:42;;;;;;;72.83;41.10;;;;;;;;;;5114604;28;20202;-85
2021/01/02 14:11:24;;;;;;;82.53;40.30;;;;;;;;;;5114819;28;20203;-85
2021/01/02 14:13:51;;;;;;;71.67;39.27;;;;;;;;;;5114682;28;20182;-85
2021/01/02 14:16:22;;;;;;;80.60;41.60;;;;;;;;;;5113346;28;20173;-85
2021/01/02 14:18:53;;;;;;;83.23;42.90;;;;;;;;;;5115085;28;20174;-85
2021/01/02 14:21:20;;;;;;;74.77;40.20;;;;;;;;;;5114765;28;20196;-85
2021/01/02 14:23:55;;;;;;;82.03;40.10;;;;;;;;;;5115024;28;20262;-86
2021/01/02 14:26:26;;;;;;;67.57;38.60;;;;;;;;;;5114617;27;20163;-85
2021/01/02 14:28:56;;;;;;;85.33;43.23;;;;;;;;;;5114264;28;20195;-85
2021/01/02 14:31:34;;;;;;;79.33;40.60;;;;;;;;;;5112845;28;20595;-85
2021/01/02 14:34:03;;;;;;;64.83;39.60;;;;;;;;;;5113108;28;20172;-85
2021/01/02 14:36:29;;;;;;;76.77;39.93;;;;;;;;;;5114608;28;20195;-85
2021/01/02 14:38:58;;;;;;;74.63;40.97;;;;;;;;;;5112843;28;20188;-85
2021/01/02 14:41:24;;;;;;;69.40;37.80;;;;;;;;;;5114288;28;20706;-85
2021/01/02 14:43:50;;;;;;;60.63;35.57;;;;;;;;;;5114228;28;20258;-85
2021/01/02 14:46:31;;;;;;;70.97;39.63;;;;;;;;;;5114038;28;20204;-85
2021/01/02 14:49:07;;;;;;;63.40;38.07;;;;;;;;;;5113978;28;20200;-85
2021/01/02 14:51:40;;;;;;;71.00;38.37;;;;;;;;;;5114086;28;20192;-85